Time;durP1;ratioP1;P1;durP2;ratioP2;P2;SDS_P1;SDS_P2;PMS_P1;PMS_P2;Temp;Humidity;BMP_temperature;BMP_pressure;BME280_temperature;BME280_humidity;BME280_pressure;Samples;Min_cycle;Max_cycle;Signal;HPM_P1;HPM_P2
2020/12/18 00:36:58;;;;;;;29.10;12.17;;;8.00;99.90;;;;;;5047401;23;20244;-85
2020/12/18 11:19:35;;;;;;;7.47;2.40;;;11.20;99.90;;;;;;725378;23;20521;-89
2020/12/18 11:30:14;;;;;;;3.40;2.30;;;11.30;99.90;;;;;;5085053;23;20647;-90
2020/12/18 11:32:41;;;;;;;4.60;2.43;;;11.40;99.90;;;;;;4976093;28;20576;-89
2020/12/18 11:35:08;;;;;;;4.20;2.10;;;11.50;99.90;;;;;;4975887;28;20300;-94
2020/12/18 11:37:35;;;;;;;4.10;2.00;;;11.50;99.90;;;;;;4958564;28;20241;-93
2020/12/18 11:40:01;;;;;;;4.07;1.83;;;11.50;99.90;;;;;;4976150;28;20212;-94
2020/12/18 11:42:27;;;;;;;5.77;1.97;;;11.60;99.90;;;;;;4975741;28;20297;-94
2020/12/18 11:44:53;;;;;;;6.17;2.40;;;11.60;99.90;;;;;;4976244;28;20653;-90
2020/12/18 11:47:20;;;;;;;8.13;2.60;;;11.60;99.90;;;;;;4958790;28;20229;-93
2020/12/18 11:49:46;;;;;;;6.10;3.20;;;11.60;99.90;;;;;;4974326;28;20209;-94
2020/12/18 11:52:13;;;;;;;5.83;3.27;;;11.80;99.90;;;;;;4958639;28;20210;-93
2020/12/18 11:54:40;;;;;;;6.77;4.40;;;11.70;99.90;;;;;;4958371;28;20236;-94
2020/12/18 11:57:06;;;;;;;8.77;5.03;;;11.80;99.90;;;;;;4958556;28;20291;-94
2020/12/18 11:59:33;;;;;;;10.50;6.70;;;11.90;99.90;;;;;;4958446;28;20213;-93
2020/12/18 12:01:59;;;;;;;7.77;4.37;;;11.90;99.90;;;;;;4976419;28;20591;-95
2020/12/18 12:04:25;;;;;;;7.60;4.30;;;11.80;99.90;;;;;;4975314;28;20216;-94
2020/12/18 12:06:52;;;;;;;8.33;4.10;;;11.90;99.90;;;;;;4973580;28;20227;-95
2020/12/18 12:09:21;;;;;;;7.07;4.33;;;12.00;99.90;;;;;;4956112;29;20214;-95
2020/12/18 12:11:48;;;;;;;6.73;4.57;;;12.10;99.90;;;;;;4961542;28;20606;-94
2020/12/18 12:14:14;;;;;;;11.00;4.87;;;12.10;99.90;;;;;;4955329;28;20209;-94
2020/12/18 12:16:41;;;;;;;7.23;5.13;;;12.10;99.90;;;;;;4962157;28;20690;-95
2020/12/18 12:19:09;;;;;;;5.63;4.67;;;12.20;99.90;;;;;;4946773;29;20734;-93
2020/12/18 12:21:36;;;;;;;7.17;4.90;;;12.20;99.90;;;;;;4971761;28;20223;-96
2020/12/18 12:24:03;;;;;;;9.47;5.07;;;12.20;99.90;;;;;;4955716;29;20214;-93
2020/12/18 12:26:30;;;;;;;6.40;4.73;;;12.20;99.90;;;;;;4955676;29;20230;-94
2020/12/18 12:28:57;;;;;;;9.80;5.67;;;12.10;99.90;;;;;;4955542;28;20244;-95
2020/12/18 12:31:28;;;;;;;15.77;6.10;;;12.10;99.90;;;;;;4941202;28;20215;-95
2020/12/18 12:33:57;;;;;;;15.13;6.03;;;12.10;99.90;;;;;;4985918;28;20607;-94
2020/12/18 12:36:26;;;;;;;14.33;6.30;;;12.10;99.90;;;;;;4994450;28;20715;-95
2020/12/18 12:38:53;;;;;;;10.23;5.77;;;12.10;99.90;;;;;;4971917;28;20226;-94
2020/12/18 12:41:19;;;;;;;16.40;5.70;;;12.20;99.90;;;;;;4955536;29;20217;-93
2020/12/18 12:43:46;;;;;;;12.97;5.60;;;12.20;99.90;;;;;;4955670;29;20290;-94
2020/12/18 12:46:13;;;;;;;21.80;6.33;;;12.30;99.90;;;;;;4955632;29;20231;-94
2020/12/18 12:48:39;;;;;;;19.90;7.10;;;12.20;99.90;;;;;;4955473;29;20222;-94
2020/12/18 12:51:05;;;;;;;14.97;6.03;;;12.30;99.90;;;;;;4955223;28;20211;-92
2020/12/18 12:53:32;;;;;;;11.17;6.00;;;12.30;99.90;;;;;;4938245;29;20211;-94
2020/12/18 12:55:58;;;;;;;10.30;4.40;;;12.40;99.90;;;;;;4955571;29;20211;-94
2020/12/18 12:58:24;;;;;;;19.90;4.93;;;12.50;99.90;;;;;;4955597;29;20250;-94
2020/12/18 13:00:52;;;;;;;8.70;4.33;;;12.40;99.90;;;;;;4938345;29;20215;-94
2020/12/18 13:03:18;;;;;;;21.23;6.13;;;12.40;99.90;;;;;;4955669;28;20208;-93
2020/12/18 13:05:45;;;;;;;18.77;5.40;;;12.40;99.90;;;;;;4974587;28;20289;-93
2020/12/18 13:08:12;;;;;;;16.57;5.77;;;12.40;99.90;;;;;;4957565;28;20203;-92
2020/12/18 13:10:38;;;;;;;18.83;6.00;;;12.30;99.90;;;;;;4957730;28;21073;-94
2020/12/18 13:13:05;;;;;;;12.90;5.10;;;12.30;99.90;;;;;;4976876;28;20264;-92
2020/12/18 13:15:31;;;;;;;14.97;4.90;;;12.30;99.90;;;;;;4974953;28;20668;-93
2020/12/18 13:17:58;;;;;;;7.40;3.40;;;12.40;99.90;;;;;;4974775;28;20231;-94
2020/12/18 13:20:25;;;;;;;9.80;4.03;;;12.20;99.90;;;;;;4974970;28;20206;-94
2020/12/18 13:22:52;;;;;;;10.93;3.70;;;12.20;99.90;;;;;;4974916;28;20264;-94
2020/12/18 13:25:19;;;;;;;9.47;4.03;;;12.40;99.90;;;;;;4980062;28;20218;-94
2020/12/18 13:27:46;;;;;;;5.77;3.40;;;12.50;99.90;;;;;;4977827;28;20270;-92
2020/12/18 13:30:12;;;;;;;9.47;3.30;;;12.70;99.90;;;;;;4978036;28;20244;-94
2020/12/18 13:32:39;;;;;;;8.80;2.90;;;12.80;99.90;;;;;;4978545;28;20204;-94
2020/12/18 13:35:06;;;;;;;11.87;3.00;;;12.80;99.90;;;;;;4978487;28;20208;-94
2020/12/18 13:37:32;;;;;;;8.30;2.00;;;13.00;99.90;;;;;;4977809;28;20725;-93
2020/12/18 13:39:59;;;;;;;20.47;3.40;;;12.90;99.90;;;;;;4945214;28;20218;-92
2020/12/18 13:42:25;;;;;;;5.23;2.37;;;12.80;99.90;;;;;;4977779;28;20726;-92
2020/12/18 13:44:52;;;;;;;4.73;1.60;;;12.70;99.90;;;;;;4960877;28;20203;-94
2020/12/18 13:47:18;;;;;;;3.43;1.80;;;12.80;99.90;;;;;;4960794;28;20357;-93
2020/12/18 13:49:45;;;;;;;3.37;1.60;;;12.80;99.90;;;;;;4960935;28;20214;-93
2020/12/18 13:52:12;;;;;;;3.20;1.60;;;12.90;99.90;;;;;;4960589;28;20217;-93
2020/12/18 13:54:38;;;;;;;2.33;1.57;;;12.80;99.90;;;;;;4977968;28;20208;-93
2020/12/18 13:57:05;;;;;;;3.17;1.50;;;12.90;99.90;;;;;;4969942;28;20235;-93
2020/12/18 13:59:32;;;;;;;3.43;1.40;;;12.80;99.90;;;;;;4944913;28;20246;-92
2020/12/18 14:01:58;;;;;;;2.60;1.50;;;12.80;99.90;;;;;;4962320;28;20204;-90
2020/12/18 14:04:25;;;;;;;3.50;1.77;;;12.80;99.90;;;;;;4979079;28;20211;-92
2020/12/18 14:06:56;;;;;;;3.93;1.77;;;12.80;99.90;;;;;;4978472;28;20231;-92
2020/12/18 14:09:23;;;;;;;3.87;1.80;;;12.80;99.90;;;;;;4960697;28;20652;-92
2020/12/18 14:11:50;;;;;;;6.20;1.53;;;12.90;99.90;;;;;;4960668;28;20215;-95
2020/12/18 14:14:17;;;;;;;4.97;2.17;;;12.90;99.90;;;;;;4977536;28;20211;-93
2020/12/18 14:16:43;;;;;;;3.33;2.03;;;12.90;99.90;;;;;;4960200;28;20234;-94
2020/12/18 14:19:10;;;;;;;4.50;2.30;;;12.90;99.90;;;;;;4976803;28;20242;-94
2020/12/18 14:21:37;;;;;;;2.20;1.80;;;12.90;99.90;;;;;;4977542;28;20210;-95
2020/12/18 14:24:03;;;;;;;7.63;2.33;;;12.80;99.90;;;;;;4977372;28;20228;-94
2020/12/18 14:26:31;;;;;;;5.30;2.23;;;12.80;99.90;;;;;;4960777;28;20234;-93
2020/12/18 14:28:57;;;;;;;3.33;2.00;;;12.90;99.90;;;;;;4977126;28;20454;-95
2020/12/18 14:31:24;;;;;;;2.57;2.33;;;12.80;99.90;;;;;;4959862;28;20613;-92
2020/12/18 14:33:50;;;;;;;1.77;1.57;;;12.80;99.90;;;;;;4977294;28;20220;-94
2020/12/18 14:36:17;;;;;;;1.73;1.60;;;12.80;99.90;;;;;;4976316;28;20230;-94
2020/12/18 14:38:43;;;;;;;2.77;1.20;;;12.70;99.90;;;;;;4977043;28;20774;-92
2020/12/18 14:41:10;;;;;;;4.80;1.30;;;12.70;99.90;;;;;;4977401;28;20552;-95
2020/12/18 14:43:37;;;;;;;1.27;1.27;;;12.70;99.90;;;;;;4959973;28;20208;-95
2020/12/18 14:46:04;;;;;;;2.67;1.43;;;12.70;99.90;;;;;;4959807;28;20634;-92
2020/12/18 14:48:30;;;;;;;2.23;1.37;;;12.60;99.90;;;;;;4976880;28;20198;-94
2020/12/18 14:50:57;;;;;;;1.50;1.20;;;12.60;99.90;;;;;;4976647;28;20264;-95
2020/12/18 14:53:23;;;;;;;3.27;1.40;;;12.60;99.90;;;;;;4944004;28;20222;-94
2020/12/18 14:55:50;;;;;;;3.00;1.73;;;12.50;99.90;;;;;;4960424;28;20202;-94
2020/12/18 14:58:16;;;;;;;2.97;1.20;;;12.40;99.90;;;;;;4976732;28;20687;-94
2020/12/18 15:00:44;;;;;;;4.80;1.60;;;12.40;99.90;;;;;;4976250;28;20207;-90
2020/12/18 15:03:10;;;;;;;2.80;1.77;;;12.40;99.90;;;;;;4977526;28;20210;-96
2020/12/18 15:05:36;;;;;;;3.70;1.93;;;12.40;99.90;;;;;;4976509;28;20194;-95
2020/12/18 15:08:03;;;;;;;3.07;1.70;;;12.40;99.90;;;;;;4976353;28;20244;-96
2020/12/18 15:10:29;;;;;;;2.77;1.60;;;12.30;99.90;;;;;;4976467;28;20654;-95
2020/12/18 15:12:56;;;;;;;3.57;1.40;;;12.30;99.90;;;;;;4959493;28;20646;-95
2020/12/18 15:15:22;;;;;;;1.63;1.50;;;12.20;99.90;;;;;;4977302;28;20605;-95
2020/12/18 15:17:52;;;;;;;3.03;1.43;;;12.20;99.90;;;;;;4959919;28;20600;-95
2020/12/18 15:20:19;;;;;;;4.40;1.90;;;12.20;99.90;;;;;;4959553;28;20212;-96
2020/12/18 15:22:45;;;;;;;7.83;1.87;;;12.10;99.90;;;;;;4976738;28;20576;-95
2020/12/18 15:25:12;;;;;;;5.80;2.40;;;12.00;99.90;;;;;;4976923;28;20212;-95
2020/12/18 15:27:38;;;;;;;3.93;1.60;;;12.10;99.90;;;;;;4976193;28;20231;-94
2020/12/18 15:30:04;;;;;;;1.97;1.60;;;12.00;99.90;;;;;;4968752;28;20241;-93
2020/12/18 15:32:31;;;;;;;3.30;1.77;;;12.00;99.90;;;;;;4976094;28;20206;-96
2020/12/18 15:34:58;;;;;;;3.10;1.80;;;12.00;99.90;;;;;;4976094;28;20615;-93
2020/12/18 15:37:25;;;;;;;3.40;2.10;;;11.90;99.90;;;;;;4975949;28;20228;-94
2020/12/18 15:39:51;;;;;;;2.13;1.93;;;11.90;99.90;;;;;;4975910;28;20320;-93
2020/12/18 15:42:19;;;;;;;4.13;2.23;;;11.80;99.90;;;;;;4976597;28;20347;-93
2020/12/18 15:44:45;;;;;;;4.60;2.27;;;11.70;99.90;;;;;;4975729;28;20206;-94
2020/12/18 15:47:12;;;;;;;8.33;2.50;;;11.70;99.90;;;;;;4976136;28;20693;-92
2020/12/18 15:49:39;;;;;;;3.73;2.20;;;11.60;99.90;;;;;;4976698;28;20652;-94
2020/12/18 15:52:07;;;;;;;3.07;2.30;;;11.60;99.90;;;;;;4976783;28;20214;-95
2020/12/18 15:54:33;;;;;;;2.23;1.90;;;11.50;99.90;;;;;;4958670;28;20636;-94
2020/12/18 15:57:00;;;;;;;3.20;2.00;;;11.50;99.90;;;;;;4958714;28;20229;-93
2020/12/18 15:59:26;;;;;;;3.53;1.70;;;11.40;99.90;;;;;;4976121;28;20244;-95
2020/12/18 16:01:53;;;;;;;2.47;2.00;;;11.50;99.90;;;;;;4975675;28;20202;-94
2020/12/18 16:04:19;;;;;;;2.77;1.90;;;11.50;99.90;;;;;;4975656;28;20213;-94
2020/12/18 16:06:45;;;;;;;2.23;2.03;;;11.50;99.90;;;;;;4977077;28;20291;-95
2020/12/18 16:09:13;;;;;;;3.03;2.30;;;11.40;99.90;;;;;;4976342;28;20216;-93
2020/12/18 16:11:39;;;;;;;5.03;1.90;;;11.40;99.90;;;;;;4976413;28;20349;-94
2020/12/18 16:14:05;;;;;;;2.83;2.20;;;11.40;99.90;;;;;;4976308;28;20210;-92
2020/12/18 16:16:32;;;;;;;4.90;2.50;;;11.30;99.90;;;;;;4960117;28;20221;-92
2020/12/18 16:21:48;;;;;;;4.73;2.40;;;11.20;99.90;;;;;;5081943;23;20320;-89
2020/12/18 16:24:15;;;;;;;5.10;2.30;;;11.10;99.90;;;;;;4975395;28;20207;-93
2020/12/18 16:26:42;;;;;;;3.00;2.53;;;11.00;99.90;;;;;;4975834;28;20234;-92
2020/12/18 16:29:09;;;;;;;4.27;2.53;;;10.90;99.90;;;;;;4974986;28;20193;-93
2020/12/18 16:31:35;;;;;;;6.13;2.90;;;11.00;99.90;;;;;;4975324;28;20209;-91
2020/12/18 16:34:02;;;;;;;3.27;2.97;;;11.00;99.90;;;;;;4975518;28;20209;-93
2020/12/18 16:36:29;;;;;;;4.00;3.63;;;11.10;99.90;;;;;;4975804;28;20229;-95
2020/12/18 16:38:56;;;;;;;8.47;3.40;;;11.10;99.90;;;;;;4976483;28;20233;-93
2020/12/18 16:41:30;;;;;;;7.70;4.20;;;11.00;99.90;;;;;;4979754;28;20209;-91
2020/12/18 16:43:58;;;;;;;6.33;4.40;;;11.00;99.90;;;;;;4959001;28;20243;-89
2020/12/18 16:46:28;;;;;;;7.57;4.30;;;11.10;99.90;;;;;;4965781;28;20769;-92
2020/12/18 16:48:55;;;;;;;5.73;3.80;;;11.10;99.90;;;;;;4957087;28;20597;-94
2020/12/18 16:51:21;;;;;;;4.17;3.77;;;11.10;99.90;;;;;;4956834;29;20249;-93
2020/12/18 16:53:48;;;;;;;6.50;4.30;;;11.10;99.90;;;;;;4956877;29;20214;-96
2020/12/18 16:56:18;;;;;;;4.33;3.93;;;10.90;99.90;;;;;;4940132;29;20226;-89
2020/12/18 16:58:46;;;;;;;4.00;3.70;;;10.90;99.90;;;;;;4955856;28;20233;-93
2020/12/18 17:01:12;;;;;;;4.70;3.77;;;10.90;99.90;;;;;;4960268;29;20204;-94
2020/12/18 17:03:39;;;;;;;4.10;3.70;;;10.90;99.90;;;;;;4961685;29;20198;-94
2020/12/18 17:06:07;;;;;;;4.37;3.40;;;10.90;99.90;;;;;;4960130;28;20326;-96
2020/12/18 17:08:33;;;;;;;4.67;3.77;;;10.90;99.90;;;;;;4959887;28;20206;-95
2020/12/18 17:11:00;;;;;;;5.33;3.57;;;10.80;99.90;;;;;;4960044;29;20298;-95
2020/12/18 17:13:27;;;;;;;6.97;4.47;;;10.80;99.90;;;;;;4975631;28;20201;-93
2020/12/18 17:15:54;;;;;;;4.53;3.40;;;10.80;99.90;;;;;;4979124;28;20628;-93
2020/12/18 17:18:20;;;;;;;3.97;3.60;;;10.70;99.90;;;;;;4979105;28;20232;-94
2020/12/18 17:20:48;;;;;;;5.23;4.03;;;10.70;99.90;;;;;;4978698;28;20231;-91
2020/12/18 17:23:15;;;;;;;4.87;4.47;;;10.80;99.90;;;;;;4978926;28;20193;-92
2020/12/18 17:25:41;;;;;;;6.53;4.30;;;10.80;99.90;;;;;;4979400;28;20213;-87
2020/12/18 17:28:07;;;;;;;3.93;3.63;;;10.90;99.90;;;;;;4978491;28;20220;-91
2020/12/18 17:30:34;;;;;;;5.83;4.07;;;10.70;99.90;;;;;;4961428;28;20193;-93
2020/12/18 17:33:02;;;;;;;5.70;4.23;;;10.80;99.90;;;;;;4978509;28;20190;-94
2020/12/18 17:35:28;;;;;;;4.80;3.93;;;10.70;99.90;;;;;;4978559;28;20641;-94
2020/12/18 17:37:54;;;;;;;6.23;4.50;;;10.70;99.90;;;;;;4978224;28;20237;-94
2020/12/18 17:40:22;;;;;;;5.33;4.50;;;10.70;99.90;;;;;;4978341;28;20240;-93
2020/12/18 17:42:49;;;;;;;4.73;4.33;;;10.60;99.90;;;;;;4978603;28;20530;-92
2020/12/18 17:45:15;;;;;;;4.93;4.23;;;10.50;99.90;;;;;;4978704;28;20413;-95
2020/12/18 17:47:42;;;;;;;5.00;4.40;;;10.60;99.90;;;;;;4978537;28;20283;-95
2020/12/18 17:50:09;;;;;;;5.40;4.80;;;10.50;99.90;;;;;;4979435;28;20240;-91
2020/12/18 17:52:35;;;;;;;7.53;4.43;;;10.60;99.90;;;;;;4983587;28;20254;-92
2020/12/18 17:55:03;;;;;;;6.00;4.10;;;10.50;99.90;;;;;;4996309;28;20208;-93
2020/12/18 17:57:30;;;;;;;4.60;4.30;;;10.50;99.90;;;;;;4996475;28;20286;-93
2020/12/18 17:59:56;;;;;;;5.53;4.30;;;10.50;99.90;;;;;;4996210;28;20236;-84
2020/12/18 18:02:22;;;;;;;4.20;3.77;;;10.50;99.90;;;;;;4997140;28;20218;-89
2020/12/18 18:04:49;;;;;;;4.17;3.87;;;10.40;99.90;;;;;;4999489;28;20259;-90
2020/12/18 18:07:19;;;;;;;7.87;4.50;;;10.30;99.90;;;;;;4997388;28;20231;-91
2020/12/18 18:09:45;;;;;;;5.57;4.50;;;10.30;99.90;;;;;;4997776;28;20232;-91
2020/12/18 18:12:11;;;;;;;7.87;4.70;;;10.20;99.90;;;;;;4988458;28;20242;-92
2020/12/18 18:14:38;;;;;;;4.97;4.57;;;10.20;99.90;;;;;;4961471;29;20216;-93
2020/12/18 18:17:06;;;;;;;5.23;4.73;;;10.30;99.90;;;;;;4958946;29;20245;-93
2020/12/18 18:19:32;;;;;;;5.27;4.53;;;10.30;99.90;;;;;;4960058;29;20222;-93
2020/12/18 18:21:59;;;;;;;7.80;4.80;;;10.30;99.90;;;;;;4958937;29;20277;-94
2020/12/18 18:24:26;;;;;;;5.33;4.83;;;10.30;99.90;;;;;;4959177;29;20210;-95
2020/12/18 18:26:56;;;;;;;6.43;4.27;;;10.40;99.90;;;;;;4960035;29;20225;-95
2020/12/18 18:29:23;;;;;;;5.13;4.40;;;10.30;99.90;;;;;;4960866;29;20204;-94
2020/12/18 18:32:06;;;;;;;6.47;4.50;;;10.40;99.90;;;;;;4970631;28;20194;-92
2020/12/18 18:34:34;;;;;;;6.40;4.60;;;10.40;99.90;;;;;;4965957;29;20190;-92
2020/12/18 18:37:07;;;;;;;6.00;5.00;;;10.30;99.90;;;;;;4927574;29;20240;-92
2020/12/18 18:39:35;;;;;;;5.30;4.03;;;10.30;99.90;;;;;;4964392;29;20234;-93
2020/12/18 18:42:01;;;;;;;7.00;4.63;;;10.20;99.90;;;;;;4957310;29;20248;-93
2020/12/18 18:44:27;;;;;;;5.23;4.60;;;10.10;99.90;;;;;;4957933;29;20281;-93
2020/12/18 18:46:54;;;;;;;5.17;4.77;;;10.20;99.90;;;;;;4957378;29;20229;-94
2020/12/18 18:49:21;;;;;;;5.03;4.47;;;10.20;99.90;;;;;;4958458;29;20209;-91
2020/12/18 18:51:48;;;;;;;5.83;4.87;;;10.20;99.90;;;;;;4960093;29;20244;-91
2020/12/18 18:54:14;;;;;;;5.20;4.80;;;10.20;99.90;;;;;;4957629;28;20297;-92
2020/12/18 18:56:41;;;;;;;5.40;4.90;;;10.20;99.90;;;;;;4957766;29;20230;-93
2020/12/18 18:59:32;;;;;;;6.40;4.73;;;10.10;99.90;;;;;;4959246;29;20712;-86
2020/12/18 19:02:32;;;;;;;6.73;5.20;;;10.20;99.90;;;;;;4984491;23;20242;-91
2020/12/18 19:05:01;;;;;;;4.90;4.40;;;10.20;99.90;;;;;;4950586;29;20663;-90
2020/12/18 19:13:31;;;;;;;7.77;5.10;;;10.10;99.90;;;;;;4945160;29;20202;-93
2020/12/18 19:15:59;;;;;;;6.37;4.90;;;10.10;99.90;;;;;;4937184;29;20209;-92
2020/12/18 19:18:44;;;;;;;7.17;4.60;;;9.90;99.90;;;;;;4940831;29;20221;-90
2020/12/18 19:24:29;;;;;;;5.30;4.90;;;10.10;99.90;;;;;;4937941;29;20290;-90
2020/12/18 19:27:32;;;;;;;5.90;4.93;;;10.00;99.90;;;;;;5405209;23;20260;-92
2020/12/18 19:30:00;;;;;;;5.20;4.70;;;10.10;99.90;;;;;;4963031;28;20252;-93
2020/12/18 19:32:46;;;;;;;5.10;4.70;;;10.00;99.90;;;;;;4985623;28;20265;-93
2020/12/18 19:35:16;;;;;;;4.77;4.37;;;9.90;99.90;;;;;;4977163;28;20206;-93
2020/12/18 19:37:43;;;;;;;4.90;4.50;;;9.90;99.90;;;;;;4959694;28;20224;-94
2020/12/18 19:40:24;;;;;;;5.20;4.80;;;9.90;99.90;;;;;;5012548;23;20205;-89
2020/12/18 19:42:50;;;;;;;4.90;4.27;;;10.00;99.90;;;;;;4947721;29;20209;-91
2020/12/18 19:45:37;;;;;;;6.90;5.07;;;9.80;99.90;;;;;;4943335;29;20555;-92
2020/12/18 19:51:15;;;;;;;5.50;5.00;;;9.80;99.90;;;;;;4962230;28;20194;-90
2020/12/18 19:56:53;;;;;;;6.17;4.70;;;9.90;99.90;;;;;;5106146;23;20229;-87
2020/12/18 20:02:03;;;;;;;6.07;4.90;;;9.90;99.90;;;;;;4986287;28;20197;-88
2020/12/18 20:04:30;;;;;;;6.97;4.60;;;9.90;99.90;;;;;;4975533;28;20220;-90
2020/12/18 20:07:00;;;;;;;5.47;4.97;;;9.80;99.90;;;;;;4975620;28;20201;-96
2020/12/18 20:09:26;;;;;;;4.50;4.20;;;9.70;99.90;;;;;;4975724;28;20687;-94
2020/12/18 20:11:52;;;;;;;4.60;4.20;;;9.70;99.90;;;;;;4975704;28;20198;-95
2020/12/18 20:14:19;;;;;;;4.40;4.10;;;9.70;99.90;;;;;;4975546;28;20590;-93
2020/12/18 20:16:45;;;;;;;5.77;4.67;;;9.70;99.90;;;;;;4975295;28;20685;-94
2020/12/18 20:19:12;;;;;;;5.60;5.10;;;9.70;99.90;;;;;;4975073;28;20239;-93
2020/12/18 20:24:41;;;;;;;9.07;5.50;;;9.80;99.90;;;;;;4997099;28;20265;-82
2020/12/18 20:27:24;;;;;;;5.40;4.83;;;9.80;99.90;;;;;;4975366;28;20236;-90
2020/12/18 20:29:55;;;;;;;5.47;5.07;;;9.80;99.90;;;;;;4978380;28;20200;-90
2020/12/18 20:32:21;;;;;;;6.80;5.50;;;9.90;99.90;;;;;;4978301;28;20198;-94
2020/12/18 20:34:49;;;;;;;8.87;4.97;;;9.70;99.90;;;;;;4975005;28;20720;-93
2020/12/18 20:37:30;;;;;;;8.00;5.80;;;9.70;99.90;;;;;;4979430;28;20229;-93
2020/12/18 20:39:57;;;;;;;7.27;5.53;;;9.80;99.90;;;;;;4976304;28;20237;-94
2020/12/18 20:42:23;;;;;;;7.93;5.67;;;9.70;99.90;;;;;;4975244;28;20193;-94
2020/12/18 20:52:05;;;;;;;6.93;6.20;;;9.80;99.90;;;;;;4989548;28;20189;-89
2020/12/18 20:54:33;;;;;;;6.30;5.77;;;9.80;99.90;;;;;;4974442;28;20201;-89
2020/12/18 21:02:38;;;;;;;6.17;5.57;;;9.70;99.90;;;;;;4985698;28;20213;-93
2020/12/18 21:33:16;;;;;;;6.67;6.07;;;9.70;99.90;;;;;;5004569;23;20253;-81
2020/12/18 21:48:41;;;;;;;7.13;6.47;;;9.60;99.90;;;;;;730985;23;16228057;-83
2020/12/18 21:51:50;;;;;;;9.20;6.57;;;9.60;99.90;;;;;;5065375;23;20439;-81
2020/12/18 21:54:36;;;;;;;7.57;6.87;;;9.70;99.90;;;;;;4995746;28;20736;-92
2020/12/18 21:57:03;;;;;;;7.43;6.73;;;9.50;99.90;;;;;;4978438;28;20233;-93
2020/12/18 21:59:33;;;;;;;6.90;6.27;;;9.40;99.90;;;;;;4977517;28;20681;-91
2020/12/18 22:22:03;;;;;;;7.90;7.07;;;9.40;99.90;;;;;;4999995;28;20202;-89
2020/12/18 22:24:56;;;;;;;8.20;7.40;;;9.40;99.90;;;;;;5083980;23;20291;-90
2020/12/18 22:27:28;;;;;;;8.23;6.93;;;9.30;99.90;;;;;;5134721;23;20328;-92
2020/12/18 22:29:55;;;;;;;7.77;6.97;;;9.40;99.90;;;;;;4977138;28;20221;-91
2020/12/18 22:35:43;;;;;;;7.90;7.00;;;9.40;99.90;;;;;;5007581;23;20237;-89
2020/12/18 22:38:11;;;;;;;8.70;7.20;;;9.30;99.90;;;;;;4958890;29;20535;-91
2020/12/18 22:40:37;;;;;;;8.10;7.23;;;9.20;99.90;;;;;;4957875;29;20288;-93
2020/12/18 22:43:04;;;;;;;8.13;7.37;;;9.30;99.90;;;;;;4957982;29;20348;-88
2020/12/18 22:46:06;;;;;;;9.80;7.43;;;9.30;99.90;;;;;;4959065;29;20202;-88
2020/12/18 22:48:32;;;;;;;7.40;6.70;;;9.30;99.90;;;;;;4959438;29;20240;-91
2020/12/18 22:53:41;;;;;;;7.50;6.83;;;9.20;99.90;;;;;;5014589;23;20331;-92
2020/12/18 22:56:15;;;;;;;7.97;7.17;;;9.20;99.90;;;;;;4976098;28;20232;-92
2020/12/18 23:04:57;;;;;;;8.60;7.30;;;9.10;99.90;;;;;;4987607;28;20252;-90
2020/12/18 23:07:23;;;;;;;7.90;7.10;;;9.10;99.90;;;;;;4979264;28;20253;-90
2020/12/18 23:09:50;;;;;;;9.93;7.63;;;9.10;99.90;;;;;;4976775;28;20572;-92
2020/12/18 23:12:17;;;;;;;8.30;7.43;;;9.00;99.90;;;;;;4976751;28;20209;-93
2020/12/18 23:14:44;;;;;;;10.87;8.00;;;9.00;99.90;;;;;;4977343;28;20275;-92
2020/12/18 23:30:44;;;;;;;10.40;7.97;;;9.00;99.90;;;;;;4981903;23;20240;-82
2020/12/18 23:49:56;;;;;;;10.33;8.07;;;9.10;99.90;;;;;;5000219;28;20181;-82
2020/12/18 23:53:02;;;;;;;9.47;7.93;;;8.90;99.90;;;;;;5006545;23;20267;-82
2020/12/18 23:58:47;;;;;;;10.10;8.60;;;9.00;99.90;;;;;;5044552;23;20243;-81
